sensor_id;sensor_type;location;lat;lon;timestamp;P1;durP1;ratioP1;P2;durP2;ratioP2
3633;SDS011;1833;42.718;23.270;2023-01-29T00:37:08;25.17;;;23.17;;
3633;SDS011;1833;42.718;23.270;2023-01-29T00:39:57;28.73;;;26.00;;
3633;SDS011;1833;42.718;23.270;2023-01-29T00:42:43;27.37;;;24.90;;
3633;SDS011;1833;42.718;23.270;2023-01-29T00:45:33;28.23;;;25.47;;
3633;SDS011;1833;42.718;23.270;2023-01-29T00:48:04;27.20;;;24.83;;
3633;SDS011;1833;42.718;23.270;2023-01-29T00:50:57;27.77;;;25.27;;
3633;SDS011;1833;42.718;23.270;2023-01-29T00:53:44;28.83;;;25.93;;
3633;SDS011;1833;42.718;23.270;2023-01-29T00:56:33;27.33;;;24.80;;
3633;SDS011;1833;42.718;23.270;2023-01-29T00:59:16;27.17;;;24.77;;
3633;SDS011;1833;42.718;23.270;2023-01-29T01:02:08;24.47;;;22.67;;
3633;SDS011;1833;42.718;23.270;2023-01-29T01:04:56;28.43;;;25.90;;
3633;SDS011;1833;42.718;23.270;2023-01-29T01:07:39;29.83;;;26.93;;
3633;SDS011;1833;42.718;23.270;2023-01-29T01:10:28;26.60;;;24.10;;
3633;SDS011;1833;42.718;23.270;2023-01-29T01:13:16;26.70;;;24.33;;
3633;SDS011;1833;42.718;23.270;2023-01-29T01:16:08;28.27;;;25.63;;
3633;SDS011;1833;42.718;23.270;2023-01-29T01:18:50;23.70;;;21.80;;
3633;SDS011;1833;42.718;23.270;2023-01-29T01:21:47;24.63;;;22.57;;
3633;SDS011;1833;42.718;23.270;2023-01-29T01:27:41;27.53;;;25.07;;
3633;SDS011;1833;42.718;23.270;2023-01-29T01:33:13;26.07;;;23.83;;
3633;SDS011;1833;42.718;23.270;2023-01-29T01:35:51;26.57;;;24.47;;
3633;SDS011;1833;42.718;23.270;2023-01-29T01:38:29;23.40;;;21.40;;
3633;SDS011;1833;42.718;23.270;2023-01-29T01:41:03;26.43;;;24.00;;
3633;SDS011;1833;42.718;23.270;2023-01-29T02:31:52;26.80;;;24.47;;
3633;SDS011;1833;42.718;23.270;2023-01-29T02:34:58;23.43;;;21.83;;
3633;SDS011;1833;42.718;23.270;2023-01-29T02:37:48;27.83;;;25.17;;
3633;SDS011;1833;42.718;23.270;2023-01-29T02:40:38;26.50;;;24.03;;
3633;SDS011;1833;42.718;23.270;2023-01-29T02:46:27;27.83;;;25.03;;
3633;SDS011;1833;42.718;23.270;2023-01-29T02:49:21;23.47;;;21.53;;
3633;SDS011;1833;42.718;23.270;2023-01-29T02:51:57;25.90;;;23.60;;
3633;SDS011;1833;42.718;23.270;2023-01-29T02:54:40;25.03;;;22.90;;
3633;SDS011;1833;42.718;23.270;2023-01-29T02:57:33;24.83;;;22.83;;
3633;SDS011;1833;42.718;23.270;2023-01-29T03:00:46;23.00;;;20.70;;
3633;SDS011;1833;42.718;23.270;2023-01-29T03:03:54;23.87;;;21.77;;
3633;SDS011;1833;42.718;23.270;2023-01-29T03:06:47;23.60;;;21.60;;
3633;SDS011;1833;42.718;23.270;2023-01-29T03:09:40;24.70;;;22.67;;
3633;SDS011;1833;42.718;23.270;2023-01-29T03:12:16;23.90;;;21.90;;
3633;SDS011;1833;42.718;23.270;2023-01-29T03:18:30;24.50;;;22.20;;
3633;SDS011;1833;42.718;23.270;2023-01-29T03:21:20;25.10;;;23.00;;
3633;SDS011;1833;42.718;23.270;2023-01-29T03:27:15;29.30;;;26.50;;
3633;SDS011;1833;42.718;23.270;2023-01-29T03:30:04;23.80;;;21.70;;
3633;SDS011;1833;42.718;23.270;2023-01-29T03:33:05;25.60;;;23.40;;
3633;SDS011;1833;42.718;23.270;2023-01-29T03:36:23;24.17;;;21.87;;
3633;SDS011;1833;42.718;23.270;2023-01-29T03:39:30;23.80;;;21.90;;
3633;SDS011;1833;42.718;23.270;2023-01-29T04:10:02;23.37;;;21.47;;
3633;SDS011;1833;42.718;23.270;2023-01-29T04:15:55;25.37;;;23.10;;
3633;SDS011;1833;42.718;23.270;2023-01-29T04:18:40;23.87;;;21.90;;
3633;SDS011;1833;42.718;23.270;2023-01-29T04:21:26;23.20;;;21.57;;
3633;SDS011;1833;42.718;23.270;2023-01-29T04:23:57;23.47;;;21.60;;
3633;SDS011;1833;42.718;23.270;2023-01-29T04:29:48;22.00;;;20.20;;
3633;SDS011;1833;42.718;23.270;2023-01-29T04:35:35;21.40;;;19.80;;
3633;SDS011;1833;42.718;23.270;2023-01-29T04:44:20;22.30;;;20.30;;
3633;SDS011;1833;42.718;23.270;2023-01-29T04:50:01;22.77;;;20.73;;
3633;SDS011;1833;42.718;23.270;2023-01-29T04:52:53;21.80;;;19.90;;
3633;SDS011;1833;42.718;23.270;2023-01-29T04:55:28;21.70;;;20.00;;
3633;SDS011;1833;42.718;23.270;2023-01-29T04:58:10;20.00;;;18.50;;
3633;SDS011;1833;42.718;23.270;2023-01-29T05:00:43;18.40;;;17.20;;
3633;SDS011;1833;42.718;23.270;2023-01-29T05:03:25;20.80;;;19.33;;
3633;SDS011;1833;42.718;23.270;2023-01-29T05:11:39;21.97;;;19.87;;
3633;SDS011;1833;42.718;23.270;2023-01-29T05:14:32;19.60;;;18.07;;
3633;SDS011;1833;42.718;23.270;2023-01-29T05:17:17;21.17;;;19.47;;
3633;SDS011;1833;42.718;23.270;2023-01-29T05:20:00;18.37;;;17.07;;
3633;SDS011;1833;42.718;23.270;2023-01-29T05:22:39;21.77;;;19.73;;
3633;SDS011;1833;42.718;23.270;2023-01-29T05:25:23;22.40;;;20.40;;
3633;SDS011;1833;42.718;23.270;2023-01-29T05:28:25;19.93;;;18.30;;
3633;SDS011;1833;42.718;23.270;2023-01-29T05:31:10;21.97;;;20.10;;
3633;SDS011;1833;42.718;23.270;2023-01-29T05:34:18;22.27;;;20.43;;
3633;SDS011;1833;42.718;23.270;2023-01-29T05:36:54;22.47;;;20.57;;
3633;SDS011;1833;42.718;23.270;2023-01-29T06:31:07;21.73;;;19.97;;
3633;SDS011;1833;42.718;23.270;2023-01-29T06:33:52;22.63;;;20.60;;
3633;SDS011;1833;42.718;23.270;2023-01-29T06:36:30;22.73;;;20.60;;
3633;SDS011;1833;42.718;23.270;2023-01-29T06:39:01;20.93;;;18.67;;
3633;SDS011;1833;42.718;23.270;2023-01-29T06:41:30;22.93;;;20.83;;
3633;SDS011;1833;42.718;23.270;2023-01-29T06:44:06;22.60;;;20.63;;
3633;SDS011;1833;42.718;23.270;2023-01-29T06:46:50;23.07;;;20.67;;
3633;SDS011;1833;42.718;23.270;2023-01-29T06:49:20;23.93;;;21.80;;
3633;SDS011;1833;42.718;23.270;2023-01-29T12:34:51;43.37;;;38.80;;
3633;SDS011;1833;42.718;23.270;2023-01-29T12:37:51;36.50;;;32.80;;
3633;SDS011;1833;42.718;23.270;2023-01-29T12:40:59;41.73;;;37.23;;
3633;SDS011;1833;42.718;23.270;2023-01-29T12:53:05;37.30;;;33.30;;
3633;SDS011;1833;42.718;23.270;2023-01-29T12:55:40;34.83;;;31.43;;
3633;SDS011;1833;42.718;23.270;2023-01-29T12:58:44;30.90;;;28.03;;
3633;SDS011;1833;42.718;23.270;2023-01-29T13:01:13;32.47;;;29.50;;
3633;SDS011;1833;42.718;23.270;2023-01-29T13:03:48;35.73;;;31.90;;
3633;SDS011;1833;42.718;23.270;2023-01-29T13:06:24;37.43;;;33.33;;
3633;SDS011;1833;42.718;23.270;2023-01-29T13:09:02;31.77;;;28.40;;
3633;SDS011;1833;42.718;23.270;2023-01-29T13:11:45;32.80;;;29.57;;
3633;SDS011;1833;42.718;23.270;2023-01-29T13:14:32;35.60;;;31.90;;
3633;SDS011;1833;42.718;23.270;2023-01-29T13:17:12;32.97;;;29.73;;
3633;SDS011;1833;42.718;23.270;2023-01-29T13:19:41;33.97;;;30.70;;
3633;SDS011;1833;42.718;23.270;2023-01-29T13:22:20;33.43;;;30.30;;
3633;SDS011;1833;42.718;23.270;2023-01-29T13:36:27;29.07;;;26.67;;
3633;SDS011;1833;42.718;23.270;2023-01-29T13:45:02;36.10;;;32.30;;
3633;SDS011;1833;42.718;23.270;2023-01-29T13:50:43;34.63;;;31.30;;
3633;SDS011;1833;42.718;23.270;2023-01-29T13:56:56;34.10;;;30.80;;
